sensor_id;sensor_type;location;lat;lon;timestamp;P1;durP1;ratioP1;P2;durP2;ratioP2
54679;SDS011;40578;53.178;5.846;2023-07-20T00:01:14;5.03;;;1.83;;
54679;SDS011;40578;53.178;5.846;2023-07-20T00:03:40;3.65;;;2.03;;
54679;SDS011;40578;53.178;5.846;2023-07-20T00:06:06;4.80;;;2.20;;
54679;SDS011;40578;53.178;5.846;2023-07-20T00:08:32;4.73;;;1.70;;
54679;SDS011;40578;53.178;5.846;2023-07-20T00:10:57;4.17;;;1.93;;
54679;SDS011;40578;53.178;5.846;2023-07-20T00:13:23;4.67;;;2.13;;
54679;SDS011;40578;53.178;5.846;2023-07-20T00:15:49;3.67;;;2.00;;
54679;SDS011;40578;53.178;5.846;2023-07-20T00:18:15;4.88;;;1.98;;
54679;SDS011;40578;53.178;5.846;2023-07-20T00:20:41;7.80;;;1.80;;
54679;SDS011;40578;53.178;5.846;2023-07-20T00:23:07;8.27;;;2.20;;
54679;SDS011;40578;53.178;5.846;2023-07-20T00:25:32;3.77;;;1.80;;
54679;SDS011;40578;53.178;5.846;2023-07-20T00:27:58;5.77;;;2.00;;
54679;SDS011;40578;53.178;5.846;2023-07-20T00:30:24;3.60;;;2.10;;
54679;SDS011;40578;53.178;5.846;2023-07-20T00:32:50;3.60;;;2.10;;
54679;SDS011;40578;53.178;5.846;2023-07-20T00:35:15;5.53;;;2.20;;
54679;SDS011;40578;53.178;5.846;2023-07-20T00:37:41;5.90;;;2.17;;
54679;SDS011;40578;53.178;5.846;2023-07-20T00:40:07;3.73;;;2.20;;
54679;SDS011;40578;53.178;5.846;2023-07-20T00:42:33;4.57;;;2.17;;
54679;SDS011;40578;53.178;5.846;2023-07-20T00:44:59;4.50;;;2.30;;
54679;SDS011;40578;53.178;5.846;2023-07-20T00:47:25;6.18;;;2.17;;
54679;SDS011;40578;53.178;5.846;2023-07-20T00:49:51;8.13;;;2.35;;
54679;SDS011;40578;53.178;5.846;2023-07-20T00:52:18;5.50;;;1.95;;
54679;SDS011;40578;53.178;5.846;2023-07-20T00:54:45;3.78;;;2.00;;
54679;SDS011;40578;53.178;5.846;2023-07-20T00:57:12;3.08;;;2.13;;
54679;SDS011;40578;53.178;5.846;2023-07-20T00:59:42;5.90;;;2.30;;
54679;SDS011;40578;53.178;5.846;2023-07-20T01:02:08;5.32;;;2.35;;
54679;SDS011;40578;53.178;5.846;2023-07-20T01:04:34;4.47;;;2.30;;
54679;SDS011;40578;53.178;5.846;2023-07-20T01:09:40;5.15;;;2.50;;
54679;SDS011;40578;53.178;5.846;2023-07-20T01:12:30;6.35;;;2.35;;
54679;SDS011;40578;53.178;5.846;2023-07-20T01:15:03;8.70;;;2.45;;
54679;SDS011;40578;53.178;5.846;2023-07-20T01:17:29;5.45;;;2.28;;
54679;SDS011;40578;53.178;5.846;2023-07-20T01:19:55;3.50;;;2.10;;
54679;SDS011;40578;53.178;5.846;2023-07-20T01:22:27;7.90;;;2.30;;
54679;SDS011;40578;53.178;5.846;2023-07-20T01:27:58;7.88;;;2.65;;
54679;SDS011;40578;53.178;5.846;2023-07-20T01:30:51;5.45;;;2.67;;
54679;SDS011;40578;53.178;5.846;2023-07-20T01:33:54;6.90;;;2.70;;
54679;SDS011;40578;53.178;5.846;2023-07-20T01:36:22;5.25;;;2.72;;
54679;SDS011;40578;53.178;5.846;2023-07-20T01:38:50;4.78;;;2.92;;
54679;SDS011;40578;53.178;5.846;2023-07-20T01:41:17;8.27;;;3.45;;
54679;SDS011;40578;53.178;5.846;2023-07-20T01:43:43;4.88;;;2.90;;
54679;SDS011;40578;53.178;5.846;2023-07-20T01:46:09;5.67;;;3.00;;
54679;SDS011;40578;53.178;5.846;2023-07-20T01:48:35;5.30;;;3.00;;
54679;SDS011;40578;53.178;5.846;2023-07-20T01:51:00;6.27;;;2.77;;
54679;SDS011;40578;53.178;5.846;2023-07-20T01:53:26;5.50;;;2.90;;
54679;SDS011;40578;53.178;5.846;2023-07-20T01:55:52;3.90;;;2.73;;
54679;SDS011;40578;53.178;5.846;2023-07-20T01:58:19;7.78;;;2.80;;
54679;SDS011;40578;53.178;5.846;2023-07-20T02:00:45;9.00;;;2.87;;
54679;SDS011;40578;53.178;5.846;2023-07-20T02:03:10;5.73;;;3.00;;
54679;SDS011;40578;53.178;5.846;2023-07-20T02:05:37;3.92;;;2.92;;
54679;SDS011;40578;53.178;5.846;2023-07-20T02:08:03;7.23;;;3.20;;
54679;SDS011;40578;53.178;5.846;2023-07-20T02:10:28;4.67;;;2.80;;
54679;SDS011;40578;53.178;5.846;2023-07-20T02:12:54;8.50;;;3.33;;
54679;SDS011;40578;53.178;5.846;2023-07-20T02:15:20;8.40;;;3.80;;
54679;SDS011;40578;53.178;5.846;2023-07-20T02:20:12;6.05;;;3.40;;
54679;SDS011;40578;53.178;5.846;2023-07-20T02:22:38;7.07;;;4.00;;
54679;SDS011;40578;53.178;5.846;2023-07-20T02:25:05;5.55;;;4.20;;
54679;SDS011;40578;53.178;5.846;2023-07-20T02:27:32;5.88;;;3.63;;
54679;SDS011;40578;53.178;5.846;2023-07-20T02:29:58;9.52;;;3.92;;
54679;SDS011;40578;53.178;5.846;2023-07-20T02:32:24;9.03;;;4.23;;
54679;SDS011;40578;53.178;5.846;2023-07-20T02:34:49;9.50;;;3.97;;
54679;SDS011;40578;53.178;5.846;2023-07-20T02:37:16;6.80;;;3.90;;
54679;SDS011;40578;53.178;5.846;2023-07-20T02:39:42;5.60;;;3.63;;
54679;SDS011;40578;53.178;5.846;2023-07-20T02:42:07;9.23;;;4.47;;
54679;SDS011;40578;53.178;5.846;2023-07-20T02:44:33;8.53;;;4.50;;
54679;SDS011;40578;53.178;5.846;2023-07-20T02:46:58;6.83;;;4.47;;
54679;SDS011;40578;53.178;5.846;2023-07-20T02:49:24;8.03;;;4.17;;
54679;SDS011;40578;53.178;5.846;2023-07-20T02:51:50;7.37;;;4.20;;
54679;SDS011;40578;53.178;5.846;2023-07-20T02:54:15;5.93;;;4.50;;
54679;SDS011;40578;53.178;5.846;2023-07-20T02:56:41;7.67;;;4.80;;
54679;SDS011;40578;53.178;5.846;2023-07-20T02:59:06;6.87;;;4.70;;
54679;SDS011;40578;53.178;5.846;2023-07-20T03:01:32;6.50;;;4.63;;
54679;SDS011;40578;53.178;5.846;2023-07-20T03:03:58;6.17;;;4.50;;
54679;SDS011;40578;53.178;5.846;2023-07-20T03:06:24;8.40;;;4.83;;
54679;SDS011;40578;53.178;5.846;2023-07-20T03:08:49;6.03;;;4.63;;
54679;SDS011;40578;53.178;5.846;2023-07-20T03:11:17;8.70;;;4.57;;
54679;SDS011;40578;53.178;5.846;2023-07-20T03:16:10;7.30;;;4.80;;
54679;SDS011;40578;53.178;5.846;2023-07-20T03:18:40;5.95;;;4.88;;
54679;SDS011;40578;53.178;5.846;2023-07-20T03:21:06;6.32;;;4.65;;
54679;SDS011;40578;53.178;5.846;2023-07-20T03:23:33;7.75;;;5.25;;
54679;SDS011;40578;53.178;5.846;2023-07-20T03:25:59;9.13;;;5.43;;
54679;SDS011;40578;53.178;5.846;2023-07-20T03:28:25;8.88;;;5.32;;
54679;SDS011;40578;53.178;5.846;2023-07-20T03:30:57;8.30;;;4.80;;
54679;SDS011;40578;53.178;5.846;2023-07-20T03:33:25;9.05;;;5.45;;
54679;SDS011;40578;53.178;5.846;2023-07-20T03:35:52;8.25;;;6.10;;
54679;SDS011;40578;53.178;5.846;2023-07-20T03:38:19;8.38;;;5.53;;
54679;SDS011;40578;53.178;5.846;2023-07-20T03:40:51;9.00;;;4.68;;
54679;SDS011;40578;53.178;5.846;2023-07-20T03:43:18;10.05;;;5.40;;
54679;SDS011;40578;53.178;5.846;2023-07-20T03:45:44;7.78;;;5.38;;
54679;SDS011;40578;53.178;5.846;2023-07-20T03:48:11;7.78;;;5.68;;
54679;SDS011;40578;53.178;5.846;2023-07-20T03:50:37;8.43;;;5.47;;
54679;SDS011;40578;53.178;5.846;2023-07-20T03:53:03;9.68;;;5.10;;
54679;SDS011;40578;53.178;5.846;2023-07-20T03:55:28;6.33;;;5.00;;
54679;SDS011;40578;53.178;5.846;2023-07-20T03:57:54;8.83;;;5.07;;
54679;SDS011;40578;53.178;5.846;2023-07-20T04:00:19;11.87;;;5.33;;
54679;SDS011;40578;53.178;5.846;2023-07-20T04:02:47;8.38;;;5.15;;
54679;SDS011;40578;53.178;5.846;2023-07-20T04:05:12;8.38;;;5.32;;
54679;SDS011;40578;53.178;5.846;2023-07-20T04:07:38;7.63;;;4.87;;
54679;SDS011;40578;53.178;5.846;2023-07-20T04:10:03;7.53;;;4.43;;
54679;SDS011;40578;53.178;5.846;2023-07-20T04:12:29;9.80;;;5.30;;
54679;SDS011;40578;53.178;5.846;2023-07-20T04:14:55;7.37;;;5.33;;
54679;SDS011;40578;53.178;5.846;2023-07-20T04:17:20;9.03;;;5.10;;
54679;SDS011;40578;53.178;5.846;2023-07-20T04:19:46;9.40;;;5.37;;
54679;SDS011;40578;53.178;5.846;2023-07-20T04:22:12;10.83;;;5.77;;
54679;SDS011;40578;53.178;5.846;2023-07-20T04:24:40;7.05;;;5.35;;
54679;SDS011;40578;53.178;5.846;2023-07-20T04:27:09;8.73;;;5.30;;
54679;SDS011;40578;53.178;5.846;2023-07-20T04:29:34;8.43;;;5.77;;
54679;SDS011;40578;53.178;5.846;2023-07-20T04:32:00;8.40;;;5.40;;
54679;SDS011;40578;53.178;5.846;2023-07-20T04:34:25;7.47;;;5.37;;
54679;SDS011;40578;53.178;5.846;2023-07-20T04:36:51;10.73;;;5.57;;
54679;SDS011;40578;53.178;5.846;2023-07-20T04:39:17;7.23;;;5.27;;
54679;SDS011;40578;53.178;5.846;2023-07-20T04:41:42;7.40;;;5.50;;
54679;SDS011;40578;53.178;5.846;2023-07-20T04:44:08;9.40;;;5.97;;
54679;SDS011;40578;53.178;5.846;2023-07-20T04:46:34;8.17;;;5.63;;
54679;SDS011;40578;53.178;5.846;2023-07-20T04:48:59;9.60;;;5.83;;
54679;SDS011;40578;53.178;5.846;2023-07-20T04:51:26;8.55;;;5.25;;
54679;SDS011;40578;53.178;5.846;2023-07-20T04:53:52;9.33;;;6.17;;
54679;SDS011;40578;53.178;5.846;2023-07-20T04:56:17;7.87;;;5.33;;
54679;SDS011;40578;53.178;5.846;2023-07-20T04:58:43;10.17;;;5.87;;
54679;SDS011;40578;53.178;5.846;2023-07-20T05:01:09;8.83;;;6.30;;
54679;SDS011;40578;53.178;5.846;2023-07-20T05:03:34;18.27;;;6.17;;
54679;SDS011;40578;53.178;5.846;2023-07-20T05:06:00;7.13;;;5.43;;
54679;SDS011;40578;53.178;5.846;2023-07-20T05:08:25;7.93;;;5.80;;
54679;SDS011;40578;53.178;5.846;2023-07-20T05:10:52;8.38;;;5.70;;
54679;SDS011;40578;53.178;5.846;2023-07-20T05:13:17;6.97;;;5.67;;
54679;SDS011;40578;53.178;5.846;2023-07-20T05:15:43;6.10;;;5.00;;
54679;SDS011;40578;53.178;5.846;2023-07-20T05:18:09;6.40;;;5.17;;
54679;SDS011;40578;53.178;5.846;2023-07-20T05:20:34;7.87;;;4.93;;
54679;SDS011;40578;53.178;5.846;2023-07-20T05:23:00;6.15;;;4.75;;
54679;SDS011;40578;53.178;5.846;2023-07-20T05:25:26;7.20;;;4.63;;
54679;SDS011;40578;53.178;5.846;2023-07-20T05:27:52;7.50;;;4.80;;
54679;SDS011;40578;53.178;5.846;2023-07-20T05:30:20;7.53;;;4.72;;
54679;SDS011;40578;53.178;5.846;2023-07-20T05:32:46;6.75;;;4.20;;
54679;SDS011;40578;53.178;5.846;2023-07-20T05:35:16;7.05;;;4.35;;
54679;SDS011;40578;53.178;5.846;2023-07-20T05:37:42;6.13;;;4.55;;
54679;SDS011;40578;53.178;5.846;2023-07-20T05:40:09;6.53;;;4.38;;
54679;SDS011;40578;53.178;5.846;2023-07-20T05:42:37;6.28;;;4.40;;
54679;SDS011;40578;53.178;5.846;2023-07-20T05:45:03;8.93;;;4.30;;
54679;SDS011;40578;53.178;5.846;2023-07-20T05:47:29;8.18;;;3.40;;
54679;SDS011;40578;53.178;5.846;2023-07-20T05:49:54;7.07;;;4.30;;
54679;SDS011;40578;53.178;5.846;2023-07-20T05:52:20;6.33;;;4.67;;
54679;SDS011;40578;53.178;5.846;2023-07-20T05:54:45;7.43;;;4.80;;
54679;SDS011;40578;53.178;5.846;2023-07-20T05:57:11;7.30;;;4.50;;
54679;SDS011;40578;53.178;5.846;2023-07-20T05:59:37;6.20;;;4.10;;
54679;SDS011;40578;53.178;5.846;2023-07-20T06:02:03;5.18;;;3.80;;
54679;SDS011;40578;53.178;5.846;2023-07-20T06:04:29;7.60;;;3.95;;
54679;SDS011;40578;53.178;5.846;2023-07-20T06:06:55;4.83;;;2.73;;
54679;SDS011;40578;53.178;5.846;2023-07-20T06:09:20;6.37;;;2.47;;
54679;SDS011;40578;53.178;5.846;2023-07-20T06:11:46;8.30;;;2.20;;
54679;SDS011;40578;53.178;5.846;2023-07-20T06:14:11;6.23;;;2.50;;
54679;SDS011;40578;53.178;5.846;2023-07-20T06:16:37;4.00;;;1.60;;
54679;SDS011;40578;53.178;5.846;2023-07-20T06:19:03;2.47;;;1.40;;
54679;SDS011;40578;53.178;5.846;2023-07-20T06:21:29;5.10;;;1.50;;
54679;SDS011;40578;53.178;5.846;2023-07-20T06:23:54;5.30;;;1.20;;
54679;SDS011;40578;53.178;5.846;2023-07-20T06:26:20;4.63;;;1.63;;
54679;SDS011;40578;53.178;5.846;2023-07-20T06:28:46;3.40;;;1.40;;
54679;SDS011;40578;53.178;5.846;2023-07-20T06:31:11;4.87;;;1.40;;
54679;SDS011;40578;53.178;5.846;2023-07-20T06:33:37;2.37;;;1.20;;
54679;SDS011;40578;53.178;5.846;2023-07-20T06:36:03;2.17;;;1.13;;
54679;SDS011;40578;53.178;5.846;2023-07-20T06:38:29;3.83;;;1.35;;
54679;SDS011;40578;53.178;5.846;2023-07-20T06:40:54;2.80;;;1.10;;
54679;SDS011;40578;53.178;5.846;2023-07-20T06:43:20;3.80;;;1.40;;
54679;SDS011;40578;53.178;5.846;2023-07-20T06:45:50;2.73;;;1.37;;
54679;SDS011;40578;53.178;5.846;2023-07-20T06:48:18;4.60;;;1.80;;
54679;SDS011;40578;53.178;5.846;2023-07-20T06:50:44;6.40;;;1.77;;
54679;SDS011;40578;53.178;5.846;2023-07-20T06:53:10;4.83;;;1.80;;
54679;SDS011;40578;53.178;5.846;2023-07-20T06:55:35;6.10;;;1.83;;
54679;SDS011;40578;53.178;5.846;2023-07-20T06:58:01;6.43;;;2.33;;
54679;SDS011;40578;53.178;5.846;2023-07-20T07:00:27;5.67;;;2.10;;
54679;SDS011;40578;53.178;5.846;2023-07-20T07:02:52;4.27;;;1.83;;
54679;SDS011;40578;53.178;5.846;2023-07-20T07:07:45;3.03;;;1.60;;
54679;SDS011;40578;53.178;5.846;2023-07-20T07:10:10;3.80;;;1.80;;
54679;SDS011;40578;53.178;5.846;2023-07-20T07:12:36;4.40;;;1.83;;
54679;SDS011;40578;53.178;5.846;2023-07-20T07:15:02;5.87;;;2.20;;
54679;SDS011;40578;53.178;5.846;2023-07-20T07:17:28;5.50;;;1.70;;
54679;SDS011;40578;53.178;5.846;2023-07-20T07:19:54;3.97;;;1.87;;
54679;SDS011;40578;53.178;5.846;2023-07-20T07:24:47;4.72;;;1.65;;
54679;SDS011;40578;53.178;5.846;2023-07-20T07:27:12;4.27;;;1.70;;
54679;SDS011;40578;53.178;5.846;2023-07-20T07:29:41;5.32;;;1.83;;
54679;SDS011;40578;53.178;5.846;2023-07-20T07:32:09;4.53;;;2.10;;
54679;SDS011;40578;53.178;5.846;2023-07-20T07:34:36;4.45;;;1.90;;
54679;SDS011;40578;53.178;5.846;2023-07-20T07:37:02;4.55;;;2.03;;
54679;SDS011;40578;53.178;5.846;2023-07-20T07:39:28;3.30;;;1.63;;
54679;SDS011;40578;53.178;5.846;2023-07-20T07:41:54;5.10;;;2.40;;
54679;SDS011;40578;53.178;5.846;2023-07-20T07:44:20;9.03;;;2.27;;
54679;SDS011;40578;53.178;5.846;2023-07-20T07:46:46;5.70;;;1.93;;
54679;SDS011;40578;53.178;5.846;2023-07-20T07:49:12;5.30;;;2.07;;
54679;SDS011;40578;53.178;5.846;2023-07-20T07:51:37;5.33;;;1.90;;
54679;SDS011;40578;53.178;5.846;2023-07-20T07:54:03;5.63;;;2.10;;
54679;SDS011;40578;53.178;5.846;2023-07-20T07:56:29;6.72;;;2.33;;
54679;SDS011;40578;53.178;5.846;2023-07-20T07:58:55;4.43;;;2.28;;
54679;SDS011;40578;53.178;5.846;2023-07-20T08:01:21;6.33;;;1.87;;
54679;SDS011;40578;53.178;5.846;2023-07-20T08:03:47;9.45;;;2.15;;
54679;SDS011;40578;53.178;5.846;2023-07-20T08:06:13;7.43;;;2.10;;
54679;SDS011;40578;53.178;5.846;2023-07-20T08:08:39;7.20;;;2.33;;
54679;SDS011;40578;53.178;5.846;2023-07-20T08:11:05;3.92;;;2.10;;
54679;SDS011;40578;53.178;5.846;2023-07-20T08:13:30;5.93;;;2.03;;
54679;SDS011;40578;53.178;5.846;2023-07-20T08:15:57;5.63;;;2.30;;
54679;SDS011;40578;53.178;5.846;2023-07-20T08:18:23;4.00;;;2.05;;
54679;SDS011;40578;53.178;5.846;2023-07-20T08:20:49;4.78;;;1.90;;
54679;SDS011;40578;53.178;5.846;2023-07-20T08:23:15;3.93;;;1.87;;
54679;SDS011;40578;53.178;5.846;2023-07-20T08:25:41;3.80;;;1.83;;
54679;SDS011;40578;53.178;5.846;2023-07-20T08:28:10;5.25;;;1.80;;
54679;SDS011;40578;53.178;5.846;2023-07-20T08:30:43;3.55;;;1.58;;
54679;SDS011;40578;53.178;5.846;2023-07-20T08:33:12;5.28;;;2.05;;
54679;SDS011;40578;53.178;5.846;2023-07-20T08:35:39;3.97;;;1.42;;
54679;SDS011;40578;53.178;5.846;2023-07-20T08:38:04;3.27;;;1.53;;
54679;SDS011;40578;53.178;5.846;2023-07-20T08:40:33;3.87;;;1.83;;
54679;SDS011;40578;53.178;5.846;2023-07-20T08:43:03;4.80;;;1.95;;
54679;SDS011;40578;53.178;5.846;2023-07-20T08:45:29;5.17;;;1.90;;
54679;SDS011;40578;53.178;5.846;2023-07-20T08:47:58;5.95;;;1.50;;
54679;SDS011;40578;53.178;5.846;2023-07-20T08:50:25;4.30;;;1.40;;
54679;SDS011;40578;53.178;5.846;2023-07-20T08:52:53;5.05;;;1.42;;
54679;SDS011;40578;53.178;5.846;2023-07-20T08:55:21;3.75;;;1.48;;
54679;SDS011;40578;53.178;5.846;2023-07-20T08:57:55;6.25;;;1.58;;
54679;SDS011;40578;53.178;5.846;2023-07-20T09:00:23;4.47;;;1.50;;
54679;SDS011;40578;53.178;5.846;2023-07-20T09:02:53;4.30;;;1.30;;
54679;SDS011;40578;53.178;5.846;2023-07-20T09:05:19;6.93;;;1.60;;
54679;SDS011;40578;53.178;5.846;2023-07-20T09:07:46;3.42;;;1.70;;
54679;SDS011;40578;53.178;5.846;2023-07-20T09:10:12;3.47;;;1.63;;
54679;SDS011;40578;53.178;5.846;2023-07-20T09:12:38;4.65;;;1.88;;
54679;SDS011;40578;53.178;5.846;2023-07-20T09:15:09;3.83;;;1.40;;
54679;SDS011;40578;53.178;5.846;2023-07-20T09:17:36;5.75;;;1.67;;
54679;SDS011;40578;53.178;5.846;2023-07-20T09:20:06;4.63;;;1.42;;
54679;SDS011;40578;53.178;5.846;2023-07-20T09:22:35;4.95;;;1.40;;
54679;SDS011;40578;53.178;5.846;2023-07-20T09:25:08;4.32;;;1.55;;
54679;SDS011;40578;53.178;5.846;2023-07-20T09:27:45;3.20;;;1.27;;
54679;SDS011;40578;53.178;5.846;2023-07-20T09:30:11;3.15;;;1.30;;
54679;SDS011;40578;53.178;5.846;2023-07-20T09:32:42;4.22;;;1.40;;
54679;SDS011;40578;53.178;5.846;2023-07-20T09:35:12;5.90;;;1.30;;
54679;SDS011;40578;53.178;5.846;2023-07-20T09:37:39;5.00;;;1.55;;
54679;SDS011;40578;53.178;5.846;2023-07-20T09:40:06;4.78;;;1.48;;
54679;SDS011;40578;53.178;5.846;2023-07-20T09:42:34;4.72;;;1.48;;
54679;SDS011;40578;53.178;5.846;2023-07-20T09:45:01;5.15;;;1.50;;
54679;SDS011;40578;53.178;5.846;2023-07-20T09:47:27;8.70;;;1.55;;
54679;SDS011;40578;53.178;5.846;2023-07-20T09:49:58;3.42;;;1.70;;
54679;SDS011;40578;53.178;5.846;2023-07-20T09:52:25;3.08;;;1.23;;
54679;SDS011;40578;53.178;5.846;2023-07-20T09:54:51;3.25;;;1.42;;
54679;SDS011;40578;53.178;5.846;2023-07-20T09:57:17;5.65;;;1.48;;
54679;SDS011;40578;53.178;5.846;2023-07-20T09:59:43;2.43;;;1.13;;
54679;SDS011;40578;53.178;5.846;2023-07-20T10:02:15;3.33;;;1.43;;
54679;SDS011;40578;53.178;5.846;2023-07-20T10:04:49;3.13;;;1.48;;
54679;SDS011;40578;53.178;5.846;2023-07-20T10:07:18;4.85;;;1.38;;
54679;SDS011;40578;53.178;5.846;2023-07-20T10:09:48;3.72;;;1.00;;
54679;SDS011;40578;53.178;5.846;2023-07-20T10:12:16;3.35;;;1.33;;
54679;SDS011;40578;53.178;5.846;2023-07-20T10:14:46;3.20;;;1.40;;
54679;SDS011;40578;53.178;5.846;2023-07-20T10:17:19;5.05;;;1.63;;
54679;SDS011;40578;53.178;5.846;2023-07-20T10:19:47;4.05;;;1.48;;
54679;SDS011;40578;53.178;5.846;2023-07-20T10:22:16;5.28;;;1.73;;
54679;SDS011;40578;53.178;5.846;2023-07-20T10:24:45;4.07;;;1.60;;
54679;SDS011;40578;53.178;5.846;2023-07-20T10:27:13;5.18;;;1.92;;
54679;SDS011;40578;53.178;5.846;2023-07-20T10:32:05;6.60;;;1.33;;
54679;SDS011;40578;53.178;5.846;2023-07-20T10:34:32;3.90;;;1.50;;
54679;SDS011;40578;53.178;5.846;2023-07-20T10:36:58;5.05;;;1.52;;
54679;SDS011;40578;53.178;5.846;2023-07-20T10:39:25;4.90;;;1.50;;
54679;SDS011;40578;53.178;5.846;2023-07-20T10:42:01;7.47;;;1.80;;
54679;SDS011;40578;53.178;5.846;2023-07-20T10:44:36;4.35;;;1.40;;
54679;SDS011;40578;53.178;5.846;2023-07-20T10:47:03;3.80;;;1.52;;
54679;SDS011;40578;53.178;5.846;2023-07-20T10:49:34;2.55;;;1.33;;
54679;SDS011;40578;53.178;5.846;2023-07-20T10:52:03;4.28;;;1.80;;
54679;SDS011;40578;53.178;5.846;2023-07-20T10:57:21;3.80;;;1.50;;
54679;SDS011;40578;53.178;5.846;2023-07-20T11:00:08;2.38;;;1.40;;
54679;SDS011;40578;53.178;5.846;2023-07-20T11:02:42;4.63;;;1.80;;
54679;SDS011;40578;53.178;5.846;2023-07-20T11:05:08;3.78;;;1.88;;
54679;SDS011;40578;53.178;5.846;2023-07-20T11:07:57;5.93;;;1.98;;
54679;SDS011;40578;53.178;5.846;2023-07-20T11:10:22;8.20;;;1.90;;
54679;SDS011;40578;53.178;5.846;2023-07-20T11:15:46;3.65;;;1.60;;
54679;SDS011;40578;53.178;5.846;2023-07-20T11:18:26;6.53;;;1.67;;
54679;SDS011;40578;53.178;5.846;2023-07-20T11:20:53;4.07;;;1.80;;
54679;SDS011;40578;53.178;5.846;2023-07-20T11:23:21;3.78;;;1.42;;
54679;SDS011;40578;53.178;5.846;2023-07-20T11:25:49;4.63;;;1.50;;
54679;SDS011;40578;53.178;5.846;2023-07-20T11:28:15;3.13;;;1.60;;
54679;SDS011;40578;53.178;5.846;2023-07-20T11:30:40;2.73;;;1.53;;
54679;SDS011;40578;53.178;5.846;2023-07-20T11:33:09;6.33;;;1.93;;
54679;SDS011;40578;53.178;5.846;2023-07-20T11:35:35;5.40;;;1.90;;
54679;SDS011;40578;53.178;5.846;2023-07-20T11:38:06;2.90;;;1.30;;
54679;SDS011;40578;53.178;5.846;2023-07-20T11:40:32;3.33;;;1.50;;
54679;SDS011;40578;53.178;5.846;2023-07-20T11:42:58;3.22;;;1.48;;
54679;SDS011;40578;53.178;5.846;2023-07-20T11:45:24;3.70;;;1.33;;
54679;SDS011;40578;53.178;5.846;2023-07-20T11:50:16;4.32;;;1.73;;
54679;SDS011;40578;53.178;5.846;2023-07-20T11:52:41;3.20;;;1.40;;
54679;SDS011;40578;53.178;5.846;2023-07-20T11:55:08;2.75;;;1.30;;
54679;SDS011;40578;53.178;5.846;2023-07-20T11:57:34;5.30;;;1.60;;
54679;SDS011;40578;53.178;5.846;2023-07-20T12:00:02;3.83;;;1.40;;
54679;SDS011;40578;53.178;5.846;2023-07-20T12:02:33;2.53;;;1.33;;
54679;SDS011;40578;53.178;5.846;2023-07-20T12:05:00;2.65;;;1.40;;
54679;SDS011;40578;53.178;5.846;2023-07-20T12:07:27;3.40;;;1.48;;
54679;SDS011;40578;53.178;5.846;2023-07-20T12:10:03;2.72;;;1.48;;
54679;SDS011;40578;53.178;5.846;2023-07-20T12:12:34;2.40;;;1.30;;
54679;SDS011;40578;53.178;5.846;2023-07-20T12:17:59;2.78;;;1.42;;
54679;SDS011;40578;53.178;5.846;2023-07-20T12:20:26;3.15;;;1.60;;
54679;SDS011;40578;53.178;5.846;2023-07-20T12:22:52;3.20;;;1.33;;
54679;SDS011;40578;53.178;5.846;2023-07-20T12:25:19;1.92;;;1.10;;
54679;SDS011;40578;53.178;5.846;2023-07-20T12:27:45;6.80;;;1.40;;
54679;SDS011;40578;53.178;5.846;2023-07-20T12:30:12;2.80;;;1.10;;
54679;SDS011;40578;53.178;5.846;2023-07-20T12:32:42;2.95;;;1.35;;
54679;SDS011;40578;53.178;5.846;2023-07-20T12:35:08;2.38;;;1.20;;
54679;SDS011;40578;53.178;5.846;2023-07-20T12:37:33;3.58;;;1.00;;
54679;SDS011;40578;53.178;5.846;2023-07-20T12:39:59;2.77;;;1.23;;
54679;SDS011;40578;53.178;5.846;2023-07-20T12:42:25;1.70;;;1.00;;
54679;SDS011;40578;53.178;5.846;2023-07-20T12:44:50;2.53;;;1.30;;
54679;SDS011;40578;53.178;5.846;2023-07-20T12:47:17;2.50;;;1.10;;
54679;SDS011;40578;53.178;5.846;2023-07-20T12:49:43;6.20;;;1.45;;
54679;SDS011;40578;53.178;5.846;2023-07-20T12:52:10;3.47;;;1.27;;
54679;SDS011;40578;53.178;5.846;2023-07-20T12:54:36;1.67;;;1.00;;
54679;SDS011;40578;53.178;5.846;2023-07-20T12:57:02;3.40;;;1.00;;
54679;SDS011;40578;53.178;5.846;2023-07-20T12:59:28;1.98;;;0.90;;
54679;SDS011;40578;53.178;5.846;2023-07-20T13:01:54;4.68;;;0.90;;
54679;SDS011;40578;53.178;5.846;2023-07-20T13:04:20;2.20;;;0.90;;
54679;SDS011;40578;53.178;5.846;2023-07-20T13:06:45;1.80;;;0.90;;
54679;SDS011;40578;53.178;5.846;2023-07-20T13:09:11;2.60;;;1.30;;
54679;SDS011;40578;53.178;5.846;2023-07-20T13:11:36;5.30;;;1.20;;
54679;SDS011;40578;53.178;5.846;2023-07-20T13:14:02;3.23;;;1.10;;
54679;SDS011;40578;53.178;5.846;2023-07-20T13:16:28;1.50;;;0.90;;
54679;SDS011;40578;53.178;5.846;2023-07-20T13:18:53;2.00;;;1.10;;
54679;SDS011;40578;53.178;5.846;2023-07-20T13:21:19;1.67;;;0.93;;
54679;SDS011;40578;53.178;5.846;2023-07-20T13:23:47;1.90;;;0.73;;
54679;SDS011;40578;53.178;5.846;2023-07-20T13:26:13;2.50;;;1.05;;
54679;SDS011;40578;53.178;5.846;2023-07-20T13:28:40;1.75;;;1.00;;
54679;SDS011;40578;53.178;5.846;2023-07-20T13:31:06;2.50;;;1.10;;
54679;SDS011;40578;53.178;5.846;2023-07-20T13:33:33;2.22;;;1.00;;
54679;SDS011;40578;53.178;5.846;2023-07-20T13:35:59;1.30;;;0.80;;
54679;SDS011;40578;53.178;5.846;2023-07-20T13:38:24;2.60;;;1.20;;
54679;SDS011;40578;53.178;5.846;2023-07-20T13:40:50;2.53;;;1.00;;
54679;SDS011;40578;53.178;5.846;2023-07-20T13:43:15;4.37;;;1.10;;
54679;SDS011;40578;53.178;5.846;2023-07-20T13:45:41;2.43;;;1.10;;
54679;SDS011;40578;53.178;5.846;2023-07-20T13:48:07;2.40;;;1.33;;
54679;SDS011;40578;53.178;5.846;2023-07-20T13:50:32;1.67;;;0.90;;
54679;SDS011;40578;53.178;5.846;2023-07-20T13:52:58;2.70;;;1.27;;
54679;SDS011;40578;53.178;5.846;2023-07-20T13:55:25;3.20;;;1.13;;
54679;SDS011;40578;53.178;5.846;2023-07-20T14:00:16;2.63;;;1.00;;
54679;SDS011;40578;53.178;5.846;2023-07-20T14:02:42;1.77;;;1.10;;
54679;SDS011;40578;53.178;5.846;2023-07-20T14:05:08;2.27;;;1.20;;
54679;SDS011;40578;53.178;5.846;2023-07-20T14:07:34;3.58;;;1.20;;
54679;SDS011;40578;53.178;5.846;2023-07-20T14:10:01;1.90;;;0.88;;
54679;SDS011;40578;53.178;5.846;2023-07-20T14:12:26;5.13;;;1.27;;
54679;SDS011;40578;53.178;5.846;2023-07-20T14:14:53;2.63;;;1.20;;
54679;SDS011;40578;53.178;5.846;2023-07-20T14:17:19;2.75;;;1.23;;
54679;SDS011;40578;53.178;5.846;2023-07-20T14:19:45;1.60;;;1.20;;
54679;SDS011;40578;53.178;5.846;2023-07-20T14:22:10;2.97;;;1.50;;
54679;SDS011;40578;53.178;5.846;2023-07-20T14:24:36;3.00;;;1.40;;
54679;SDS011;40578;53.178;5.846;2023-07-20T14:27:02;1.83;;;1.10;;
54679;SDS011;40578;53.178;5.846;2023-07-20T14:29:28;2.78;;;1.30;;
54679;SDS011;40578;53.178;5.846;2023-07-20T14:31:56;2.72;;;1.30;;
54679;SDS011;40578;53.178;5.846;2023-07-20T14:34:22;2.70;;;1.50;;
54679;SDS011;40578;53.178;5.846;2023-07-20T14:36:48;2.42;;;1.20;;
54679;SDS011;40578;53.178;5.846;2023-07-20T14:39:15;2.78;;;1.40;;
54679;SDS011;40578;53.178;5.846;2023-07-20T14:41:40;3.50;;;1.50;;
54679;SDS011;40578;53.178;5.846;2023-07-20T14:44:06;3.57;;;1.40;;
54679;SDS011;40578;53.178;5.846;2023-07-20T14:46:32;5.03;;;1.52;;
54679;SDS011;40578;53.178;5.846;2023-07-20T14:48:57;4.10;;;1.83;;
54679;SDS011;40578;53.178;5.846;2023-07-20T14:51:23;3.38;;;1.60;;
54679;SDS011;40578;53.178;5.846;2023-07-20T14:53:51;2.35;;;1.25;;
54679;SDS011;40578;53.178;5.846;2023-07-20T14:56:16;2.70;;;1.40;;
54679;SDS011;40578;53.178;5.846;2023-07-20T14:58:42;3.53;;;1.50;;
54679;SDS011;40578;53.178;5.846;2023-07-20T15:01:08;3.00;;;1.20;;
54679;SDS011;40578;53.178;5.846;2023-07-20T15:03:33;4.33;;;1.60;;
54679;SDS011;40578;53.178;5.846;2023-07-20T15:05:59;4.63;;;1.37;;
54679;SDS011;40578;53.178;5.846;2023-07-20T15:08:26;2.92;;;1.40;;
54679;SDS011;40578;53.178;5.846;2023-07-20T15:10:51;2.67;;;1.30;;
54679;SDS011;40578;53.178;5.846;2023-07-20T15:13:17;2.40;;;1.43;;
54679;SDS011;40578;53.178;5.846;2023-07-20T15:15:42;3.67;;;1.40;;
54679;SDS011;40578;53.178;5.846;2023-07-20T15:18:08;3.40;;;1.20;;